Terminal Aerodrome Forecast
Issued by NWS

Home | Current Version | Previous Version | Text Only | Print | Product List | Glossary On
Versions: 1 2 3 4 5 6 7 8 9 10 11 12 13 14 15 16 17 18 19 20 21 22 23 24 25 26 27 28 29 30 31 32 33 34 35 36 37 38 39 40 41 42 43 44 45 46 47 48 49 50
451
FTUS44 KHGX 290520
TAFSGR
TAF
KSGR 290520Z 2906/3006 16009KT P6SM FEW045
     FM290800 14003KT 6SM BR SCT008 SCT015
      TEMPO 2910/2913 4SM BR
     FM291300 VRB03KT P6SM BKN015 BKN150
     FM291600 13007KT P6SM SCT025 SCT150
     FM291900 15008KT P6SM SCT035 SCT250
     FM300000 14008KT P6SM BKN250=

USA.gov is the U.S. government's official web portal to all federal, state and local government web resources and services.